Time;durP1;ratioP1;P1;durP2;ratioP2;P2;SDS_P1;SDS_P2;PMS_P1;PMS_P2;Temp;Humidity;BMP_temperature;BMP_pressure;BME280_temperature;BME280_humidity;BME280_pressure;Samples;Min_cycle;Max_cycle;Signal;HPM_P1;HPM_P2
2024/01/30 00:00:36;;;;;;;4.38;3.70;;;;;;;-0.01;100.00;94258.97;2065683;28;20026;-81
2024/01/30 00:01:37;;;;;;;5.93;4.00;;;;;;;-0.16;100.00;94256.94;2081995;28;20076;-82
2024/01/30 00:02:43;;;;;;;5.72;3.95;;;;;;;-0.24;100.00;94252.50;2073695;28;20029;-78
2024/01/30 00:03:44;;;;;;;6.38;4.00;;;;;;;-0.29;100.00;94253.44;2066117;28;20026;-81
2024/01/30 00:04:45;;;;;;;4.88;4.20;;;;;;;-0.36;100.00;94257.66;2073417;28;20489;-82
2024/01/30 00:05:46;;;;;;;5.80;3.70;;;;;;;-0.29;100.00;94247.44;2081584;28;20024;-80
2024/01/30 00:06:47;;;;;;;6.63;3.72;;;;;;;-0.31;100.00;94254.84;2076876;28;20113;-80
2024/01/30 00:07:48;;;;;;;6.93;4.25;;;;;;;-0.37;100.00;94256.13;2089806;28;20381;-79
2024/01/30 00:08:48;;;;;;;6.00;3.90;;;;;;;-0.37;100.00;94264.78;2090148;28;20033;-78
2024/01/30 00:09:49;;;;;;;5.50;4.03;;;;;;;-0.43;100.00;94252.16;2081457;28;20048;-81
2024/01/30 00:10:50;;;;;;;7.28;4.00;;;;;;;-0.39;100.00;94253.81;2084614;28;20040;-81
2024/01/30 00:11:51;;;;;;;5.72;3.90;;;;;;;-0.42;100.00;94254.44;2090973;28;20119;-80
2024/01/30 00:12:52;;;;;;;7.05;3.78;;;;;;;-0.39;100.00;94253.06;2081636;28;20514;-79
2024/01/30 00:13:54;;;;;;;6.72;3.80;;;;;;;-0.38;100.00;94257.97;2071909;28;20050;-82
2024/01/30 00:14:55;;;;;;;5.13;4.00;;;;;;;-0.36;100.00;94249.78;2090144;28;20494;-81
2024/01/30 00:15:56;;;;;;;4.53;3.38;;;;;;;-0.30;100.00;94251.16;2076618;28;20025;-80
2024/01/30 00:16:57;;;;;;;5.60;4.43;;;;;;;-0.33;100.00;94251.78;2082848;28;20186;-83
2024/01/30 00:17:58;;;;;;;6.18;3.63;;;;;;;-0.36;100.00;94252.41;2082595;28;20021;-81
2024/01/30 00:18:59;;;;;;;6.82;4.30;;;;;;;-0.49;100.00;94248.16;2073188;28;20109;-82
2024/01/30 00:20:00;;;;;;;5.70;3.75;;;;;;;-0.40;100.00;94246.25;2079816;28;20043;-79
2024/01/30 00:21:01;;;;;;;5.13;4.32;;;;;;;-0.43;100.00;94247.66;2088787;28;20078;-82
2024/01/30 00:22:02;;;;;;;5.93;3.67;;;;;;;-0.47;100.00;94257.28;2098775;28;20098;-78
2024/01/30 00:23:03;;;;;;;5.65;3.50;;;;;;;-0.36;100.00;94249.78;2094156;28;20039;-80
2024/01/30 00:24:04;;;;;;;5.55;3.45;;;;;;;-0.39;100.00;94258.31;2090077;28;20474;-81
2024/01/30 00:25:05;;;;;;;5.40;3.42;;;;;;;-0.41;100.00;94263.09;2076489;28;20022;-84
2024/01/30 00:26:06;;;;;;;5.80;3.55;;;;;;;-0.41;100.00;94252.59;2082129;28;20025;-83
2024/01/30 00:27:08;;;;;;;5.53;3.40;;;;;;;-0.41;100.00;94258.63;2098137;28;20024;-79
2024/01/30 00:28:09;;;;;;;7.30;3.63;;;;;;;-0.33;100.00;94257.03;2098131;28;20028;-78
2024/01/30 00:29:10;;;;;;;5.35;3.80;;;;;;;-0.40;100.00;94262.00;2089947;28;20024;-82
2024/01/30 00:30:12;;;;;;;5.43;3.30;;;;;;;-0.45;100.00;94254.31;2081825;28;20030;-81
2024/01/30 00:31:13;;;;;;;6.63;3.42;;;;;;;-0.43;100.00;94257.41;2073240;28;20495;-81
2024/01/30 00:32:14;;;;;;;6.63;3.90;;;;;;;-0.32;100.00;94250.69;2078865;28;20028;-78
2024/01/30 00:33:16;;;;;;;6.10;3.78;;;;;;;-0.43;100.00;94258.19;2098200;28;20051;-78
2024/01/30 00:34:16;;;;;;;4.95;3.70;;;;;;;-0.38;100.00;94257.22;2089660;28;20047;-79
2024/01/30 00:35:17;;;;;;;4.72;3.25;;;;;;;-0.36;100.00;94247.16;2081812;28;20418;-81
2024/01/30 00:36:18;;;;;;;7.15;3.58;;;;;;;-0.44;100.00;94250.59;2085595;28;20512;-82
2024/01/30 00:37:19;;;;;;;6.88;3.00;;;;;;;-0.44;100.00;94258.47;2081578;28;20444;-78
2024/01/30 00:38:20;;;;;;;5.80;3.50;;;;;;;-0.48;100.00;94249.69;2081583;28;20068;-78
2024/01/30 00:39:21;;;;;;;6.68;3.58;;;;;;;-0.42;100.00;94254.44;2073204;28;20022;-80
2024/01/30 00:40:22;;;;;;;4.55;3.30;;;;;;;-0.44;100.00;94261.09;2073382;28;20033;-81
2024/01/30 00:41:23;;;;;;;5.47;3.17;;;;;;;-0.36;100.00;94255.78;2078692;28;21770;-81
2024/01/30 00:42:25;;;;;;;4.32;3.13;;;;;;;-0.34;100.00;94256.25;2081329;28;20038;-79
2024/01/30 00:43:26;;;;;;;4.32;3.42;;;;;;;-0.33;100.00;94262.28;2075244;28;20040;-81
2024/01/30 00:44:27;;;;;;;5.68;3.53;;;;;;;-0.35;100.00;94265.25;2088956;28;20435;-81
2024/01/30 00:45:27;;;;;;;6.18;3.13;;;;;;;-0.22;100.00;94252.16;2080924;28;20046;-80
2024/01/30 00:46:28;;;;;;;3.25;2.88;;;;;;;-0.24;100.00;94249.09;2078672;28;20032;-79
2024/01/30 00:47:29;;;;;;;6.30;3.33;;;;;;;-0.25;100.00;94253.59;2083233;28;20034;-79
2024/01/30 00:48:30;;;;;;;6.88;3.70;;;;;;;-0.32;100.00;94261.19;2089309;28;20059;-79
2024/01/30 00:49:31;;;;;;;4.88;3.10;;;;;;;-0.26;100.00;94262.56;2087302;28;20029;-80
2024/01/30 00:50:32;;;;;;;5.43;3.35;;;;;;;-0.28;100.00;94256.84;2079822;28;20598;-78
2024/01/30 00:51:33;;;;;;;5.13;3.10;;;;;;;-0.23;100.00;94254.03;2079539;28;20022;-80
2024/01/30 00:52:34;;;;;;;5.53;3.15;;;;;;;-0.30;100.00;94256.41;2091506;28;20035;-81
2024/01/30 00:53:35;;;;;;;3.60;2.90;;;;;;;-0.34;100.00;94261.53;2086955;28;20026;-84
2024/01/30 00:54:38;;;;;;;5.35;3.13;;;;;;;-0.29;100.00;94263.97;2092476;28;20094;-80
2024/01/30 00:55:39;;;;;;;5.22;2.97;;;;;;;-0.41;100.00;94271.75;2100191;28;20036;-83
2024/01/30 00:56:40;;;;;;;5.93;3.47;;;;;;;-0.28;100.00;94254.22;2089084;28;20021;-81
2024/01/30 00:57:41;;;;;;;5.05;3.10;;;;;;;-0.31;100.00;94260.09;2089121;28;20049;-82
2024/01/30 00:58:43;;;;;;;5.88;3.22;;;;;;;-0.36;100.00;94260.28;2089132;28;20477;-80
2024/01/30 00:59:44;;;;;;;6.88;3.35;;;;;;;-0.21;100.00;94251.09;2081084;28;20029;-79
2024/01/30 01:00:45;;;;;;;5.72;3.00;;;;;;;-0.16;100.00;94256.94;2072892;28;20033;-82
2024/01/30 01:01:47;;;;;;;4.35;2.65;;;;;;;-0.23;100.00;94253.25;2072961;28;20117;-81
2024/01/30 01:02:47;;;;;;;3.80;3.10;;;;;;;-0.12;100.00;94249.94;2089013;28;20108;-77
2024/01/30 01:03:48;;;;;;;6.10;2.70;;;;;;;0.01;100.00;94255.28;2093175;28;20033;-82
2024/01/30 01:04:49;;;;;;;5.07;2.58;;;;;;;-0.03;100.00;94255.16;2080854;28;20030;-80
2024/01/30 01:05:50;;;;;;;3.85;2.85;;;;;;;-0.10;100.00;94254.88;2072042;28;20033;-81
2024/01/30 01:06:52;;;;;;;6.55;3.00;;;;;;;-0.13;100.00;94251.03;2082907;28;20021;-82
2024/01/30 01:07:53;;;;;;;4.65;2.70;;;;;;;-0.09;100.00;94249.31;2105885;28;20024;-81
2024/01/30 01:08:54;;;;;;;3.33;2.83;;;;;;;-0.07;100.00;94252.38;2097667;28;20028;-80
2024/01/30 01:09:55;;;;;;;4.68;2.63;;;;;;;-0.11;100.00;94254.09;2097371;28;20034;-80
2024/01/30 01:10:56;;;;;;;3.92;2.30;;;;;;;-0.12;100.00;94257.06;2097466;28;20027;-81
2024/01/30 01:11:57;;;;;;;3.58;2.30;;;;;;;-0.10;100.00;94245.13;2085592;28;20501;-80
2024/01/30 01:12:58;;;;;;;3.08;2.47;;;;;;;0.06;100.00;94255.84;2075389;28;20033;-77
2024/01/30 01:13:59;;;;;;;4.38;2.50;;;;;;;0.18;100.00;94248.03;2081979;28;20086;-80
2024/01/30 01:14:59;;;;;;;3.30;2.42;;;;;;;0.14;100.00;94259.50;2088041;28;20245;-80
2024/01/30 01:16:00;;;;;;;4.63;2.55;;;;;;;0.19;100.00;94262.69;2085033;28;20107;-79
2024/01/30 01:17:03;;;;;;;2.92;2.30;;;;;;;0.18;100.00;94263.03;2078101;28;20125;-82
2024/01/30 01:18:04;;;;;;;3.17;2.28;;;;;;;0.28;100.00;94262.63;2065641;28;20034;-81
2024/01/30 01:19:10;;;;;;;5.25;2.83;;;;;;;0.28;100.00;94265.25;2064651;28;20026;-82
2024/01/30 01:20:12;;;;;;;4.05;2.35;;;;;;;0.46;100.00;94261.41;2080714;28;20029;-83
2024/01/30 01:21:12;;;;;;;4.28;2.20;;;;;;;0.16;100.00;94265.97;2076303;28;20025;-80
2024/01/30 01:22:13;;;;;;;3.65;2.30;;;;;;;0.13;100.00;94258.75;2064869;28;20019;-80
2024/01/30 01:23:14;;;;;;;3.95;2.22;;;;;;;0.13;100.00;94258.75;2065647;28;20050;-80
2024/01/30 01:24:15;;;;;;;3.38;2.20;;;;;;;0.19;100.00;94269.81;2067709;28;20029;-82
2024/01/30 01:25:16;;;;;;;3.45;2.55;;;;;;;0.36;100.00;94263.66;2073606;28;20097;-76
2024/01/30 01:26:17;;;;;;;3.65;2.30;;;;;;;0.25;100.00;94256.16;2072910;28;20030;-82
2024/01/30 01:27:18;;;;;;;3.63;2.63;;;;;;;0.47;100.00;94257.66;2064936;28;20022;-81
2024/01/30 01:28:19;;;;;;;3.53;2.20;;;;;;;0.23;100.00;94262.84;2072893;28;20137;-80
2024/01/30 01:29:28;;;;;;;2.72;2.50;;;;;;;0.17;100.00;94269.34;2072965;28;20053;-80
2024/01/30 01:30:30;;;;;;;2.65;2.22;;;;;;;0.17;100.00;94269.34;2064870;28;20034;-80
2024/01/30 01:31:31;;;;;;;3.08;2.78;;;;;;;0.16;100.00;94262.56;2072930;28;20040;-80
2024/01/30 01:32:32;;;;;;;3.80;2.40;;;;;;;0.09;100.00;94255.22;2081148;28;20041;-80
2024/01/30 01:33:33;;;;;;;4.53;2.67;;;;;;;0.35;100.00;94265.53;2076843;28;20057;-83
2024/01/30 01:34:34;;;;;;;5.88;2.60;;;;;;;0.29;100.00;94256.28;2081413;28;20033;-82
2024/01/30 01:35:35;;;;;;;5.13;3.10;;;;;;;0.32;100.00;94257.50;2092134;28;20037;-78
2024/01/30 01:36:36;;;;;;;3.47;2.78;;;;;;;0.33;100.00;94262.44;2076233;28;20124;-81
2024/01/30 01:37:37;;;;;;;3.70;3.30;;;;;;;0.31;100.00;94256.75;2079607;28;20660;-80
2024/01/30 01:38:38;;;;;;;4.97;3.45;;;;;;;0.39;100.00;94263.00;2083794;28;20094;-79
2024/01/30 01:39:39;;;;;;;4.22;3.13;;;;;;;0.47;100.00;94264.78;2076010;28;20033;-81
2024/01/30 01:40:40;;;;;;;6.80;3.50;;;;;;;0.47;100.00;94257.66;2085126;28;20040;-78
2024/01/30 01:41:41;;;;;;;4.85;3.60;;;;;;;0.63;100.00;94264.97;2089395;28;20070;-81
2024/01/30 01:42:42;;;;;;;3.50;3.17;;;;;;;0.73;100.00;94254.03;2089252;28;20108;-82
2024/01/30 01:43:43;;;;;;;4.55;3.30;;;;;;;0.66;100.00;94257.19;2072518;28;20022;-80
2024/01/30 01:44:44;;;;;;;4.82;3.17;;;;;;;0.73;100.00;94267.19;2058931;28;20037;-81
2024/01/30 01:45:45;;;;;;;6.63;3.20;;;;;;;0.70;100.00;94260.72;2067501;28;20471;-83
2024/01/30 01:46:47;;;;;;;5.00;3.30;;;;;;;0.71;100.00;94258.84;2066075;28;20037;-78
2024/01/30 01:47:51;;;;;;;4.85;3.10;;;;;;;0.58;100.00;94252.78;2074402;28;20021;-78
2024/01/30 01:48:53;;;;;;;3.60;3.03;;;;;;;0.65;100.00;94257.50;2079144;28;20048;-82
2024/01/30 01:49:54;;;;;;;2.95;2.65;;;;;;;0.66;100.00;94253.78;2074581;28;20061;-79
2024/01/30 01:50:55;;;;;;;4.45;3.00;;;;;;;0.65;100.00;94258.28;2086331;28;20025;-82
2024/01/30 01:51:57;;;;;;;4.22;3.22;;;;;;;0.67;100.00;94244.81;2078428;28;20490;-80
2024/01/30 01:52:58;;;;;;;3.85;2.85;;;;;;;0.79;100.00;94252.75;2074189;28;20022;-82
2024/01/30 01:54:03;;;;;;;5.53;3.30;;;;;;;0.56;100.00;94247.06;2071996;28;20473;-82
2024/01/30 01:55:05;;;;;;;4.22;2.90;;;;;;;0.63;100.00;94249.94;2063647;28;20030;-81
2024/01/30 01:56:06;;;;;;;3.80;3.25;;;;;;;0.66;100.00;94256.41;2076472;28;20022;-83
2024/01/30 01:57:07;;;;;;;5.80;3.13;;;;;;;0.61;100.00;94248.72;2088163;28;20036;-81
2024/01/30 01:58:09;;;;;;;4.63;3.55;;;;;;;0.67;100.00;94239.53;2080451;28;20064;-81
2024/01/30 01:59:10;;;;;;;4.80;3.38;;;;;;;0.94;100.00;94249.47;2074038;28;20022;-82
2024/01/30 02:00:12;;;;;;;5.07;3.35;;;;;;;0.67;100.00;94247.44;2080489;28;20053;-81
2024/01/30 02:01:14;;;;;;;3.08;2.78;;;;;;;0.71;100.00;94256.22;2075373;28;20104;-83
2024/01/30 02:02:19;;;;;;;4.45;3.40;;;;;;;0.76;100.00;94258.66;2072071;28;20045;-81
2024/01/30 02:03:23;;;;;;;4.35;2.97;;;;;;;0.67;100.00;94250.84;2085450;28;20016;-79
2024/01/30 02:04:24;;;;;;;4.45;3.10;;;;;;;0.61;100.00;94253.97;2088657;28;20120;-81
2024/01/30 02:05:26;;;;;;;4.72;3.05;;;;;;;0.90;100.00;94253.84;2088609;28;20382;-81
2024/01/30 02:06:27;;;;;;;5.38;3.08;;;;;;;0.73;100.00;94248.75;2097072;28;20051;-80
2024/01/30 02:07:28;;;;;;;3.33;2.83;;;;;;;0.73;100.00;94243.50;2080104;28;20031;-80
2024/01/30 02:08:29;;;;;;;4.30;3.33;;;;;;;0.64;100.00;94253.34;2080442;28;20036;-81
2024/01/30 02:09:31;;;;;;;4.45;3.53;;;;;;;0.69;100.00;94250.50;2080652;28;20033;-82
2024/01/30 02:10:32;;;;;;;3.83;3.15;;;;;;;0.66;100.00;94243.25;2072290;28;20505;-82
2024/01/30 02:11:33;;;;;;;3.90;3.10;;;;;;;0.65;100.00;94255.63;2076202;28;20032;-81
2024/01/30 02:12:34;;;;;;;4.10;2.60;;;;;;;0.66;100.00;94246.69;2074905;28;20029;-78
2024/01/30 02:13:35;;;;;;;4.55;3.08;;;;;;;0.61;100.00;94246.09;2074717;28;20545;-80
2024/01/30 02:14:45;;;;;;;5.47;3.05;;;;;;;0.65;100.00;94247.75;2081011;28;20071;-82
2024/01/30 02:15:49;;;;;;;;;;;;;;;0.71;100.00;94254.38;2083534;28;20493;-80
2024/01/30 02:16:49;;;;;;;3.28;2.58;;;;;;;0.73;100.00;94246.13;2087757;28;20385;-80
2024/01/30 02:17:50;;;;;;;3.40;3.10;;;;;;;0.79;100.00;94252.75;2083952;28;20029;-82
2024/01/30 02:18:51;;;;;;;5.82;3.17;;;;;;;0.79;100.00;94258.00;2094282;28;20078;-79
2024/01/30 02:19:52;;;;;;;4.35;3.00;;;;;;;0.72;100.00;94249.88;2088374;28;20854;-79
2024/01/30 02:21:04;;;;;;;3.90;3.08;;;;;;;0.73;100.00;94254.03;2088509;28;20486;-81
2024/01/30 02:22:05;;;;;;;4.60;2.78;;;;;;;0.72;100.00;94247.22;2076993;28;20119;-78
2024/01/30 02:23:08;;;;;;;4.28;3.28;;;;;;;0.74;100.00;94251.06;2064620;28;20032;-83
2024/01/30 02:26:12;;;;;;;4.28;3.13;;;;;;;-0.13;100.00;94253.66;2139256;27;20177;-83
2024/01/30 02:27:13;;;;;;;4.75;3.13;;;;;;;0.04;100.00;94252.00;2120150;28;20126;-83
2024/01/30 02:28:14;;;;;;;5.22;3.22;;;;;;;0.07;100.00;94246.88;2096334;28;20024;-81
2024/01/30 02:29:15;;;;;;;5.95;3.50;;;;;;;0.06;100.00;94247.97;2112918;28;20028;-82
2024/01/30 02:30:16;;;;;;;5.30;3.20;;;;;;;0.27;100.00;94241.94;2112995;28;20381;-82
2024/01/30 02:31:17;;;;;;;4.45;3.03;;;;;;;0.29;100.00;94245.00;2104154;28;20733;-84
2024/01/30 02:32:18;;;;;;;4.53;3.15;;;;;;;0.19;100.00;94243.53;2104510;28;20407;-84
2024/01/30 02:33:21;;;;;;;5.07;3.08;;;;;;;0.19;100.00;94241.66;2113272;28;20061;-83
2024/01/30 02:34:24;;;;;;;3.47;2.95;;;;;;;0.16;100.00;94244.16;2112868;28;20020;-81
2024/01/30 02:35:25;;;;;;;4.65;3.20;;;;;;;0.13;100.00;94245.59;2104636;28;20027;-83
2024/01/30 02:36:26;;;;;;;5.50;3.08;;;;;;;0.27;100.00;94244.56;2112589;28;20058;-82
2024/01/30 02:37:27;;;;;;;4.07;3.17;;;;;;;0.29;100.00;94239.75;2121563;27;20074;-83
2024/01/30 02:38:28;;;;;;;4.47;3.42;;;;;;;0.25;100.00;94247.50;2111985;28;20550;-84
2024/01/30 02:39:29;;;;;;;4.57;3.40;;;;;;;0.28;100.00;94244.22;2110542;28;20031;-83
2024/01/30 02:40:31;;;;;;;4.57;3.22;;;;;;;0.23;100.00;94244.44;2012052;28;21149;-82
2024/01/30 02:41:32;;;;;;;4.55;3.20;;;;;;;0.16;100.00;94239.69;2033057;28;20048;-83
2024/01/30 02:42:33;;;;;;;3.92;3.20;;;;;;;0.14;100.00;94243.72;2040889;28;20785;-84
2024/01/30 02:43:34;;;;;;;3.92;3.20;;;;;;;0.32;100.00;94253.00;2052899;27;21173;-84
2024/01/30 02:44:35;;;;;;;3.22;2.65;;;;;;;0.34;100.00;94242.94;2059398;27;20027;-83
2024/01/30 02:45:36;;;;;;;3.75;2.85;;;;;;;0.32;100.00;94250.38;2064113;27;20057;-82
2024/01/30 02:46:37;;;;;;;3.00;2.67;;;;;;;0.29;100.00;94240.50;2062778;27;20065;-83
2024/01/30 02:47:39;;;;;;;4.35;3.30;;;;;;;0.24;100.00;94241.47;2079304;27;20169;-83
2024/01/30 02:48:39;;;;;;;4.45;2.92;;;;;;;0.32;100.00;94239.88;2079807;28;20027;-81
2024/01/30 02:49:40;;;;;;;4.72;3.10;;;;;;;0.40;100.00;94236.41;2096045;28;22315;-80
2024/01/30 02:50:41;;;;;;;5.43;3.00;;;;;;;0.40;100.00;94241.66;2101522;28;20555;-81
2024/01/30 02:51:42;;;;;;;4.28;2.90;;;;;;;0.38;100.00;94241.19;2106059;28;20062;-80
2024/01/30 02:52:46;;;;;;;3.90;2.83;;;;;;;0.28;100.00;94238.97;2107605;28;20032;-81
2024/01/30 02:53:47;;;;;;;5.53;3.00;;;;;;;0.29;100.00;94245.75;2095959;28;20131;-84
2024/01/30 02:54:48;;;;;;;3.33;2.78;;;;;;;0.24;100.00;94245.97;2114510;28;20721;-84
2024/01/30 02:55:49;;;;;;;4.78;3.10;;;;;;;0.25;100.00;94239.59;2004002;28;20031;-85
2024/01/30 02:56:50;;;;;;;3.92;2.47;;;;;;;0.26;100.00;94235.88;2016742;28;20032;-82
2024/01/30 02:57:51;;;;;;;3.78;3.20;;;;;;;0.36;100.00;94240.00;2037398;28;20947;-82
2024/01/30 02:58:52;;;;;;;4.57;3.10;;;;;;;0.29;100.00;94245.00;2042025;28;23359;-84
2024/01/30 02:59:53;;;;;;;3.45;2.92;;;;;;;0.47;100.00;94241.13;2050498;28;20428;-82
2024/01/30 03:00:54;;;;;;;3.67;2.63;;;;;;;0.37;100.00;94239.66;2054801;28;21411;-82
2024/01/30 03:01:55;;;;;;;2.60;2.38;;;;;;;0.25;100.00;94244.88;2053920;28;20028;-83
2024/01/30 03:03:01;;;;;;;3.25;2.90;;;;;;;0.23;100.00;94239.16;2071926;28;20024;-84
2024/01/30 03:04:02;;;;;;;3.20;2.88;;;;;;;0.08;100.00;94237.88;2085392;28;20111;-84
2024/01/30 03:05:05;;;;;;;3.67;2.78;;;;;;;0.06;100.00;94244.56;2083323;28;20804;-80
2024/01/30 03:06:07;;;;;;;3.30;2.83;;;;;;;0.06;100.00;94244.56;2084225;28;20028;-84
2024/01/30 03:07:08;;;;;;;4.13;2.85;;;;;;;0.02;100.00;94239.19;2087736;28;20035;-80
2024/01/30 03:08:09;;;;;;;3.55;3.17;;;;;;;0.01;100.00;94242.91;2098728;28;20027;-79
2024/01/30 03:09:10;;;;;;;4.15;3.00;;;;;;;0.10;100.00;94243.59;2108065;28;20052;-85
2024/01/30 03:10:11;;;;;;;5.38;3.47;;;;;;;0.08;100.00;94242.38;2118104;28;20023;-81
2024/01/30 03:11:12;;;;;;;4.35;2.78;;;;;;;-0.01;100.00;94243.19;2112211;28;20488;-81
2024/01/30 03:12:13;;;;;;;5.40;3.22;;;;;;;0.04;100.00;94238.84;2095899;28;20399;-81
2024/01/30 03:13:14;;;;;;;3.92;2.80;;;;;;;0.04;100.00;94239.63;2103852;28;20028;-83
2024/01/30 03:14:15;;;;;;;5.20;2.83;;;;;;;0.11;100.00;94241.75;2112582;28;20122;-84
2024/01/30 03:15:16;;;;;;;4.10;3.40;;;;;;;0.14;100.00;94241.09;2104336;28;20558;-85
2024/01/30 03:16:17;;;;;;;4.13;3.47;;;;;;;0.17;100.00;94237.81;2104292;28;20113;-83
2024/01/30 03:17:18;;;;;;;5.55;3.10;;;;;;;0.22;100.00;94238.41;2120985;28;20066;-83
2024/01/30 03:18:19;;;;;;;4.57;3.40;;;;;;;0.20;100.00;94237.19;2121027;28;20026;-81
2024/01/30 03:19:20;;;;;;;4.07;3.15;;;;;;;0.13;100.00;94237.72;2112388;28;20431;-80
2024/01/30 03:20:21;;;;;;;4.30;3.03;;;;;;;0.10;100.00;94242.84;2104250;28;20056;-82
2024/01/30 03:21:22;;;;;;;4.55;3.05;;;;;;;0.06;100.00;94244.56;2112555;28;20023;-81
2024/01/30 03:22:23;;;;;;;4.18;3.50;;;;;;;0.04;100.00;94244.88;2120902;28;20019;-80
2024/01/30 03:23:24;;;;;;;5.60;3.40;;;;;;;0.33;100.00;94240.63;2112658;28;20024;-81
2024/01/30 03:24:26;;;;;;;4.13;3.10;;;;;;;0.33;100.00;94240.63;2104592;28;20388;-82
2024/01/30 03:25:27;;;;;;;5.75;3.33;;;;;;;0.25;100.00;94245.63;2103536;28;20458;-82
2024/01/30 03:26:27;;;;;;;6.13;3.90;;;;;;;0.25;100.00;94244.88;2112627;28;20028;-83
2024/01/30 03:27:28;;;;;;;5.43;3.20;;;;;;;0.21;100.00;94246.59;2104290;28;20150;-84
2024/01/30 03:28:29;;;;;;;3.38;3.08;;;;;;;0.18;100.00;94244.63;2102081;28;20035;-83
2024/01/30 03:29:30;;;;;;;4.22;3.08;;;;;;;0.07;100.00;94243.47;2113212;28;20472;-83
2024/01/30 03:30:32;;;;;;;3.92;3.33;;;;;;;0.10;100.00;94240.97;2104286;28;20028;-84
2024/01/30 03:31:35;;;;;;;5.82;3.25;;;;;;;0.12;100.00;94246.66;2100888;28;20024;-82
2024/01/30 03:32:36;;;;;;;4.22;3.60;;;;;;;0.15;100.00;94250.53;2097730;28;20043;-82
2024/01/30 03:33:37;;;;;;;4.38;3.50;;;;;;;0.36;100.00;94247.88;2094292;28;20435;-80
2024/01/30 03:34:39;;;;;;;5.60;3.90;;;;;;;0.54;100.00;94249.25;2112466;28;20112;-85
2024/01/30 03:35:40;;;;;;;4.05;3.35;;;;;;;0.39;100.00;94253.25;2112435;28;20107;-80
2024/01/30 03:36:41;;;;;;;4.47;3.55;;;;;;;0.55;100.00;94244.75;2104140;28;20138;-82
2024/01/30 03:37:42;;;;;;;5.47;3.60;;;;;;;0.48;100.00;94256.59;2081581;28;20053;-82
2024/01/30 03:38:43;;;;;;;5.40;3.40;;;;;;;0.31;100.00;94256.75;2090368;28;20039;-82
2024/01/30 03:39:44;;;;;;;4.22;3.47;;;;;;;0.26;100.00;94243.75;2097343;28;20048;-80
2024/01/30 03:40:45;;;;;;;7.20;3.28;;;;;;;0.20;100.00;94251.09;2106791;28;20023;-82
2024/01/30 03:41:46;;;;;;;5.93;3.28;;;;;;;0.22;100.00;94245.50;2098390;28;20024;-83
2024/01/30 03:42:46;;;;;;;4.47;3.47;;;;;;;0.19;100.00;94251.41;2106788;28;20131;-83
2024/01/30 03:43:47;;;;;;;4.85;3.78;;;;;;;0.19;100.00;94248.78;2106511;28;20024;-84
2024/01/30 03:44:51;;;;;;;4.07;3.08;;;;;;;0.14;100.00;94254.25;2098382;28;20092;-82
2024/01/30 03:45:52;;;;;;;4.57;3.38;;;;;;;0.03;100.00;94242.56;2115244;28;20106;-81
2024/01/30 03:46:53;;;;;;;6.95;3.45;;;;;;;0.02;100.00;94251.56;2115099;28;20049;-81
2024/01/30 03:47:54;;;;;;;4.47;3.60;;;;;;;0.09;100.00;94241.28;2106803;28;20127;-82
2024/01/30 03:48:55;;;;;;;4.03;3.20;;;;;;;0.14;100.00;94247.13;2106956;28;20035;-83
2024/01/30 03:49:56;;;;;;;5.18;3.33;;;;;;;0.14;100.00;94246.38;2106668;28;20027;-82
2024/01/30 03:50:57;;;;;;;4.40;3.55;;;;;;;0.13;100.00;94236.91;2098523;28;20027;-83
2024/01/30 03:51:58;;;;;;;5.43;3.20;;;;;;;0.08;100.00;94247.63;2114894;28;20106;-84
2024/01/30 03:52:59;;;;;;;3.92;3.35;;;;;;;0.19;100.00;94248.78;2114654;28;20088;-81
2024/01/30 03:54:01;;;;;;;4.60;3.63;;;;;;;0.42;100.00;94239.47;2114604;28;20140;-81
2024/01/30 03:55:02;;;;;;;5.13;3.70;;;;;;;0.27;100.00;94247.19;2113467;28;20444;-83
2024/01/30 03:56:03;;;;;;;5.10;3.72;;;;;;;0.15;100.00;94240.78;2094356;28;20032;-81
2024/01/30 03:57:05;;;;;;;5.25;3.50;;;;;;;-0.09;100.00;94240.63;2090037;28;20028;-82
2024/01/30 03:58:06;;;;;;;4.63;3.60;;;;;;;0.02;100.00;94239.19;2095006;28;20115;-82
2024/01/30 03:59:07;;;;;;;4.88;3.60;;;;;;;-0.01;100.00;94240.56;2093974;28;20073;-82
2024/01/30 04:00:08;;;;;;;4.28;3.00;;;;;;;-0.09;100.00;94245.88;2111762;28;20072;-80
2024/01/30 04:01:14;;;;;;;4.45;3.05;;;;;;;-0.08;100.00;94237.72;2110533;28;20034;-84
2024/01/30 04:02:15;;;;;;;4.78;3.40;;;;;;;-0.13;100.00;94243.16;2106505;28;20487;-81
2024/01/30 04:03:16;;;;;;;5.30;3.28;;;;;;;-0.11;100.00;94237.56;2103255;28;20020;-83
2024/01/30 04:04:18;;;;;;;4.63;3.45;;;;;;;0.01;100.00;94237.66;2103359;28;20020;-84
2024/01/30 04:05:19;;;;;;;5.55;3.50;;;;;;;0.08;100.00;94245.00;2105977;28;20495;-81
2024/01/30 04:06:20;;;;;;;5.45;3.63;;;;;;;-0.01;100.00;94248.47;2104856;28;20079;-84
2024/01/30 04:07:20;;;;;;;6.82;3.70;;;;;;;0.11;100.00;94239.13;2091416;28;20076;-81
2024/01/30 04:08:22;;;;;;;7.07;4.15;;;;;;;0.33;100.00;94233.50;2095317;28;20111;-82
2024/01/30 04:09:23;;;;;;;4.05;3.53;;;;;;;0.43;100.00;94245.47;2097750;28;20032;-83
2024/01/30 04:10:24;;;;;;;4.22;3.67;;;;;;;0.25;100.00;94245.63;2097704;28;20028;-82
2024/01/30 04:11:25;;;;;;;4.68;3.78;;;;;;;0.11;100.00;94242.50;2098194;28;20024;-84
2024/01/30 04:12:27;;;;;;;4.68;4.05;;;;;;;0.01;100.00;94247.38;2097640;28;20377;-82
2024/01/30 04:13:28;;;;;;;5.25;3.97;;;;;;;-0.05;100.00;94242.31;2114315;28;20035;-80
2024/01/30 04:14:29;;;;;;;6.25;4.07;;;;;;;0.18;100.00;94247.25;2107658;28;20052;-81
2024/01/30 04:15:30;;;;;;;5.63;3.78;;;;;;;0.06;100.00;94244.56;2103935;28;20036;-82
2024/01/30 04:16:31;;;;;;;4.82;3.63;;;;;;;-0.14;100.00;94243.47;2098885;28;20419;-80
2024/01/30 04:17:32;;;;;;;6.53;4.03;;;;;;;-0.11;100.00;94237.56;2106276;28;20059;-81
2024/01/30 04:18:34;;;;;;;6.80;4.30;;;;;;;-0.17;100.00;94244.88;2114909;28;20034;-83
2024/01/30 04:19:38;;;;;;;6.00;4.15;;;;;;;-0.05;100.00;94241.53;2114566;28;20020;-82
2024/01/30 04:20:38;;;;;;;5.47;3.50;;;;;;;-0.04;100.00;94246.50;2115185;28;20027;-80
2024/01/30 04:21:39;;;;;;;4.97;3.75;;;;;;;-0.09;100.00;94238.81;2106515;28;20393;-84
2024/01/30 04:22:45;;;;;;;6.45;4.18;;;;;;;-0.19;100.00;94246.28;2106556;28;20450;-82
2024/01/30 04:23:46;;;;;;;4.80;3.53;;;;;;;-0.37;100.00;94254.25;2115014;28;20027;-82
2024/01/30 04:24:47;;;;;;;4.35;3.55;;;;;;;-0.24;100.00;94243.84;2106608;28;20028;-84
2024/01/30 04:25:48;;;;;;;6.68;3.78;;;;;;;-0.22;100.00;94236.41;2105555;28;20036;-81
2024/01/30 04:26:48;;;;;;;5.13;3.90;;;;;;;-0.27;100.00;94248.63;2106412;28;20458;-80
2024/01/30 04:27:49;;;;;;;5.05;3.67;;;;;;;-0.23;100.00;94243.50;2085962;28;20032;-84
2024/01/30 04:28:51;;;;;;;4.25;3.67;;;;;;;-0.12;100.00;94242.06;2087864;28;20072;-79
2024/01/30 04:29:51;;;;;;;5.28;3.88;;;;;;;-0.23;100.00;94242.75;2089865;28;20025;-84
2024/01/30 04:30:53;;;;;;;4.95;3.80;;;;;;;0.00;100.00;94233.47;2110104;28;20436;-82
2024/01/30 04:31:54;;;;;;;4.78;3.22;;;;;;;-0.04;100.00;94238.59;2098117;28;20058;-81
2024/01/30 04:32:55;;;;;;;5.13;3.53;;;;;;;-0.11;100.00;94237.56;2087596;28;20421;-83
2024/01/30 04:33:56;;;;;;;4.13;3.63;;;;;;;-0.06;100.00;94246.03;2091510;28;20067;-83
2024/01/30 04:35:04;;;;;;;5.75;3.75;;;;;;;-0.09;100.00;94232.75;2106025;28;20027;-82
2024/01/30 04:36:10;;;;;;;5.15;4.10;;;;;;;-0.22;100.00;94239.03;2114854;28;20022;-80
2024/01/30 04:37:11;;;;;;;5.60;3.90;;;;;;;-0.24;100.00;94239.34;2115345;28;20122;-85
2024/01/30 04:38:12;;;;;;;5.53;3.80;;;;;;;-0.21;100.00;94241.34;2114548;28;20453;-83
2024/01/30 04:39:13;;;;;;;5.60;3.67;;;;;;;-0.17;100.00;94237.00;2100549;28;20595;-82
2024/01/30 04:40:13;;;;;;;5.22;4.07;;;;;;;-0.14;100.00;94243.47;2105341;28;20016;-83
2024/01/30 04:41:16;;;;;;;6.25;3.78;;;;;;;-0.29;100.00;94242.94;2106667;28;20024;-83
2024/01/30 04:42:17;;;;;;;5.72;4.03;;;;;;;-0.26;100.00;94236.28;2098068;28;20705;-82
2024/01/30 04:43:19;;;;;;;5.68;3.55;;;;;;;-0.22;100.00;94245.06;2106030;28;20362;-82
2024/01/30 04:44:19;;;;;;;6.07;3.50;;;;;;;-0.19;100.00;94244.41;2106410;28;20020;-82
2024/01/30 04:45:20;;;;;;;5.00;3.53;;;;;;;-0.23;100.00;94240.13;2098042;28;20021;-82
2024/01/30 04:46:21;;;;;;;6.00;3.60;;;;;;;-0.32;100.00;94240.94;2081529;28;20456;-84
2024/01/30 04:47:22;;;;;;;4.35;3.47;;;;;;;-0.22;100.00;94250.34;2081657;28;20025;-79
2024/01/30 04:48:23;;;;;;;4.25;3.63;;;;;;;-0.28;100.00;94247.09;2101202;28;20052;-82
2024/01/30 04:49:24;;;;;;;4.35;3.33;;;;;;;-0.41;100.00;94252.59;2114088;28;20051;-83